Overview Statistics Trail Chart Weather Telemetry Raw packets
 

This is the latest recevied weather packets stored in our database for station/object K4KMJ. If no packets are shown the sender has not sent any weather packets the latest 10 day(s).

<< 105 106 107 108 109 110 111 >>
Time Temp. Humidity Pressure Rain* Wind** Luminosity Snow
1787861030 31.67° C 72% 1017.2 hPa 0 mm - 529 W/m² -
1787860729 31.11° C 76% 1017 hPa 0 mm - 279 W/m² -
1787860424 30° C 78% 1017 hPa 0 mm - 221 W/m² -
1787860124 30° C 78% 1017.3 hPa 0 mm - 189 W/m² -
1787859820 30° C 78% 1017.2 hPa 0 mm - 236 W/m² -
1787859520 30° C 75% 1017.2 hPa 0 mm - 229 W/m² -
1787859214 30.56° C 74% 1017.6 hPa 2.29 mm - 210 W/m² -
1787858906 30.56° C 73% 1017.6 hPa 2.29 mm - 215 W/m² -
1787858600 30° C 73% 1017.5 hPa 0 mm - 193 W/m² -
1787858295 30.56° C 73% 1017.7 hPa 0 mm - 140 W/m² -
1787857990 31.11° C 73% 1017.8 hPa 0 mm - 260 W/m² -
1787857686 33.89° C 67% 1017.3 hPa 0 mm - 221 W/m² -
1787857381 33.33° C 68% 1017.5 hPa 0 mm - 195 W/m² -
1787857079 33.33° C 68% 1017.4 hPa 0 mm - 426 W/m² -
1787856774 33.33° C 68% 1017.6 hPa 0 mm - 773 W/m² -
1787856468 34.44° C 68% 1017.6 hPa 0 mm - 764 W/m² -
1787856164 33.89° C 67% 1017.8 hPa 0 mm - 790 W/m² -
1787855858 33.89° C 67% 1017.8 hPa 0 mm - 795 W/m² -
1787855553 33.33° C 68% 1017.7 hPa 0 mm - 816 W/m² -
1787855249 32.78° C 68% 1017.8 hPa 0 mm - 157 W/m² -
1787854945 32.78° C 68% 1017.9 hPa 0 mm - 881 W/m² -
1787854639 33.33° C 71% 1017.8 hPa 0 mm - 804 W/m² -
1787854334 33.33° C 69% 1017.9 hPa 0 mm - 786 W/m² -
1787854034 33.33° C 68% 1018 hPa 0 mm - 774 W/m² -
1787853728 32.78° C 69% 1018 hPa 0 mm - 762 W/m² -

* Rain latest hour (hover to see other rain measurements)
** Current wind speed in m/s (hover to see current wind gust speed)